Himawari 2 — JG5636 — position and weather

sailwx.info

Track history (hours):
 
Tides and Currents Weather Stations Pressure Air Temp Water Temp Dewpoint Dewpoint Depression Visibility Wind Speed Wind Dir Waves Ship Positions

Himawari 2

Last reported at 2016-Nov-29 14:11 UTC. Time now 2016-Dec-03 15:46 UTC.
Position N 35°03' E 139°43'.

Length 161 m; draft 6.5 m.

Type: Cargo ship. MMSI: 431100957.

Date/timePositionNaut miles runAvg speedWind from/ knotsBaromVisibWave heightAir tempDewpointWater temp
2016-Nov-29 14:11N 35°03' E 139°43'1117.9
2016-Nov-29 13:33N 35°14' E 139°46'1313.0
2016-Nov-29 12:33N 35°27' E 139°47'9 9.2
2016-Nov-29 11:32N 35°36' E 139°48'0 0.0
2016-Nov-29 10:32N 35°36' E 139°48'0 0.0
2016-Nov-29 09:32N 35°36' E 139°48'0 0.0
2016-Nov-29 08:32N 35°36' E 139°48'0 0.0
2016-Nov-29 07:32N 35°36' E 139°48'0 0.0
2016-Nov-29 06:32N 35°36' E 139°48'0 0.0
2016-Nov-29 05:32N 35°36' E 139°48'0 0.0
2016-Nov-29 04:32N 35°36' E 139°48'0 0.0
2016-Nov-29 03:32N 35°36' E 139°48'0 0.0
2016-Nov-29 02:32N 35°36' E 139°48'0 0.0
2016-Nov-29 01:32N 35°36' E 139°48'0 0.0
2016-Nov-29 00:33N 35°36' E 139°48'8 8.3
2016-Nov-28 23:34N 35°29' E 139°51'1312.5
2016-Nov-28 22:33N 35°17' E 139°45'1414.3
2016-Nov-28 21:33N 35°03' E 139°43'24318.3
2016-Nov-28 08:17N 33°57' E 134°59'1723.8
2016-Nov-28 07:34N 34°14' E 134°58'2222.4
2016-Nov-28 06:33N 34°32' E 135°14'1110.4
2016-Nov-28 05:29N 34°40' E 135°24'0 0.0
2016-Nov-28 04:23N 34°40' E 135°24'0 0.0
2016-Nov-28 03:23N 34°40' E 135°24'0 0.0
2016-Nov-28 02:29N 34°40' E 135°24'0 0.0
2016-Nov-28 01:29N 34°40' E 135°24'0 0.0
2016-Nov-28 00:29N 34°40' E 135°24'0 0.0
2016-Nov-27 23:23N 34°40' E 135°24'0 0.0
2016-Nov-27 21:30N 34°40' E 135°24'0 0.0
2016-Nov-27 20:29N 34°40' E 135°24'0 0.0
2016-Nov-27 19:29N 34°40' E 135°24'0 0.0
2016-Nov-27 18:29N 34°40' E 135°24'0 0.0
2016-Nov-27 17:29N 34°40' E 135°24'0 0.0
2016-Nov-27 16:29N 34°40' E 135°24'0 0.0
2016-Nov-27 15:23N 34°40' E 135°24'0 0.0
2016-Nov-27 14:11N 34°40' E 135°24'0 0.0
2016-Nov-27 13:23N 34°40' E 135°24'0 0.0
2016-Nov-27 12:29N 34°40' E 135°24'0 0.0
2016-Nov-27 11:29N 34°40' E 135°24'0 0.0
2016-Nov-27 10:23N 34°40' E 135°24'0 0.0
2016-Nov-27 09:29N 34°40' E 135°24'0 0.0
2016-Nov-27 08:23N 34°40' E 135°24'0 0.0
2016-Nov-27 07:29N 34°40' E 135°24'0 0.0
2016-Nov-27 06:29N 34°40' E 135°24'0 0.0
2016-Nov-27 04:23N 34°40' E 135°24'0 0.0
2016-Nov-27 03:23N 34°40' E 135°24'0 0.0
2016-Nov-27 02:29N 34°40' E 135°24'0 0.1
2016-Nov-27 01:34N 34°39' E 135°24'1414.3
2016-Nov-27 00:33N 34°29' E 135°12'1818.3
2016-Nov-26 23:33N 34°14' E 134°59'23315.5
2016-Nov-26 08:32N 35°02' E 139°37'1615.8
2016-Nov-26 07:32N 35°16' E 139°46'1313.3
2016-Nov-26 06:33N 35°29' E 139°49'8 7.4
2016-Nov-26 05:31N 35°36' E 139°48'0 0.0
2016-Nov-26 04:31N 35°36' E 139°48'0 0.0
2016-Nov-26 03:31N 35°36' E 139°48'0 0.0
2016-Nov-26 02:31N 35°36' E 139°48'1 1.0
2016-Nov-26 01:33N 35°36' E 139°47'1312.6
2016-Nov-26 00:33N 35°23' E 139°46'1212.2
2016-Nov-25 23:33N 35°11' E 139°47'  
2016-Nov-22 15:23N 35°01' E 139°44'1417.1
2016-Nov-22 14:33N 35°15' E 139°46'1313.4
2016-Nov-22 13:33N 35°28' E 139°49'8 2.7
2016-Nov-22 10:33N 35°36' E 139°48'0 0.0
2016-Nov-22 09:33N 35°36' E 139°48'0 0.0
2016-Nov-22 08:33N 35°36' E 139°48'0 0.0
2016-Nov-22 07:30N 35°36' E 139°48'0 0.0
2016-Nov-22 05:33N 35°36' E 139°48'0 0.0
2016-Nov-22 04:30N 35°36' E 139°48'0 0.0
2016-Nov-22 03:33N 35°36' E 139°48'0 0.0
2016-Nov-22 02:30N 35°36' E 139°48'6 2.0
2016-Nov-21 23:33N 35°32' E 139°52'25917.2
2016-Nov-21 08:32N 33°60' E 134°58'2323.3
2016-Nov-21 07:33N 34°22' E 135°01'2612.0
2016-Nov-21 05:24N 34°40' E 135°24'0 0.0
2016-Nov-21 04:24N 34°40' E 135°24'0 0.0
2016-Nov-21 02:30N 34°40' E 135°24'0 0.0
2016-Nov-21 00:30N 34°40' E 135°24'0 0.0
2016-Nov-20 22:30N 34°40' E 135°24'0 0.0
2016-Nov-20 21:18N 34°40' E 135°24'0 0.0
2016-Nov-20 17:30N 34°40' E 135°24'0 0.0
2016-Nov-20 16:24N 34°40' E 135°24'0 0.0
2016-Nov-20 14:30N 34°40' E 135°24'0 0.0
2016-Nov-20 13:30N 34°40' E 135°24'0 0.0
2016-Nov-20 12:30N 34°40' E 135°24'0 0.0
2016-Nov-20 09:30N 34°40' E 135°24'0 0.0
2016-Nov-20 08:30N 34°40' E 135°24'0 0.0
2016-Nov-20 07:30N 34°40' E 135°24'0 0.0
2016-Nov-20 06:30N 34°40' E 135°24'0 0.0
2016-Nov-20 05:30N 34°40' E 135°24'0 0.0
2016-Nov-20 04:24N 34°40' E 135°24'0 0.0
2016-Nov-20 03:30N 34°40' E 135°24'12 6.1
2016-Nov-20 01:33N 34°31' E 135°14'  
Track history (hours):
 
Tides and Currents Weather Stations Pressure Air Temp Water Temp Dewpoint Dewpoint Depression Visibility Wind Speed Wind Dir Waves Ship Positions

Himawari 2

Last reported at 2016-Nov-29 14:11 UTC. Time now 2016-Dec-03 15:46 UTC.
Position N 35°03' E 139°43'.

Length 161 m; draft 6.5 m.

Type: Cargo ship. MMSI: 431100957.

Date/timePositionNaut miles runAvg speedWind from/ knotsBaromVisibWave heightAir tempDewpointWater temp
2016-Nov-29 14:11N 35°03' E 139°43'1117.9
2016-Nov-29 13:33N 35°14' E 139°46'1313.0
2016-Nov-29 12:33N 35°27' E 139°47'9 9.2
2016-Nov-29 11:32N 35°36' E 139°48'0 0.0
2016-Nov-29 10:32N 35°36' E 139°48'0 0.0
2016-Nov-29 09:32N 35°36' E 139°48'0 0.0
2016-Nov-29 08:32N 35°36' E 139°48'0 0.0
2016-Nov-29 07:32N 35°36' E 139°48'0 0.0
2016-Nov-29 06:32N 35°36' E 139°48'0 0.0
2016-Nov-29 05:32N 35°36' E 139°48'0 0.0
2016-Nov-29 04:32N 35°36' E 139°48'0 0.0
2016-Nov-29 03:32N 35°36' E 139°48'0 0.0
2016-Nov-29 02:32N 35°36' E 139°48'0 0.0
2016-Nov-29 01:32N 35°36' E 139°48'0 0.0
2016-Nov-29 00:33N 35°36' E 139°48'8 8.3
2016-Nov-28 23:34N 35°29' E 139°51'1312.5
2016-Nov-28 22:33N 35°17' E 139°45'1414.3
2016-Nov-28 21:33N 35°03' E 139°43'24318.3
2016-Nov-28 08:17N 33°57' E 134°59'1723.8
2016-Nov-28 07:34N 34°14' E 134°58'2222.4
2016-Nov-28 06:33N 34°32' E 135°14'1110.4
2016-Nov-28 05:29N 34°40' E 135°24'0 0.0
2016-Nov-28 04:23N 34°40' E 135°24'0 0.0
2016-Nov-28 03:23N 34°40' E 135°24'0 0.0
2016-Nov-28 02:29N 34°40' E 135°24'0 0.0
2016-Nov-28 01:29N 34°40' E 135°24'0 0.0
2016-Nov-28 00:29N 34°40' E 135°24'0 0.0
2016-Nov-27 23:23N 34°40' E 135°24'0 0.0
2016-Nov-27 21:30N 34°40' E 135°24'0 0.0
2016-Nov-27 20:29N 34°40' E 135°24'0 0.0
2016-Nov-27 19:29N 34°40' E 135°24'0 0.0
2016-Nov-27 18:29N 34°40' E 135°24'0 0.0
2016-Nov-27 17:29N 34°40' E 135°24'0 0.0
2016-Nov-27 16:29N 34°40' E 135°24'0 0.0
2016-Nov-27 15:23N 34°40' E 135°24'0 0.0
2016-Nov-27 14:11N 34°40' E 135°24'0 0.0
2016-Nov-27 13:23N 34°40' E 135°24'0 0.0
2016-Nov-27 12:29N 34°40' E 135°24'0 0.0
2016-Nov-27 11:29N 34°40' E 135°24'0 0.0
2016-Nov-27 10:23N 34°40' E 135°24'0 0.0
2016-Nov-27 09:29N 34°40' E 135°24'0 0.0
2016-Nov-27 08:23N 34°40' E 135°24'0 0.0
2016-Nov-27 07:29N 34°40' E 135°24'0 0.0
2016-Nov-27 06:29N 34°40' E 135°24'0 0.0
2016-Nov-27 04:23N 34°40' E 135°24'0 0.0
2016-Nov-27 03:23N 34°40' E 135°24'0 0.0
2016-Nov-27 02:29N 34°40' E 135°24'0 0.1
2016-Nov-27 01:34N 34°39' E 135°24'1414.3
2016-Nov-27 00:33N 34°29' E 135°12'1818.3
2016-Nov-26 23:33N 34°14' E 134°59'23315.5
2016-Nov-26 08:32N 35°02' E 139°37'1615.8
2016-Nov-26 07:32N 35°16' E 139°46'1313.3
2016-Nov-26 06:33N 35°29' E 139°49'8 7.4
2016-Nov-26 05:31N 35°36' E 139°48'0 0.0
2016-Nov-26 04:31N 35°36' E 139°48'0 0.0
2016-Nov-26 03:31N 35°36' E 139°48'0 0.0
2016-Nov-26 02:31N 35°36' E 139°48'1 1.0
2016-Nov-26 01:33N 35°36' E 139°47'1312.6
2016-Nov-26 00:33N 35°23' E 139°46'1212.2
2016-Nov-25 23:33N 35°11' E 139°47'  
2016-Nov-22 15:23N 35°01' E 139°44'1417.1
2016-Nov-22 14:33N 35°15' E 139°46'1313.4
2016-Nov-22 13:33N 35°28' E 139°49'8 2.7
2016-Nov-22 10:33N 35°36' E 139°48'0 0.0
2016-Nov-22 09:33N 35°36' E 139°48'0 0.0
2016-Nov-22 08:33N 35°36' E 139°48'0 0.0
2016-Nov-22 07:30N 35°36' E 139°48'0 0.0
2016-Nov-22 05:33N 35°36' E 139°48'0 0.0
2016-Nov-22 04:30N 35°36' E 139°48'0 0.0
2016-Nov-22 03:33N 35°36' E 139°48'0 0.0
2016-Nov-22 02:30N 35°36' E 139°48'6 2.0
2016-Nov-21 23:33N 35°32' E 139°52'25917.2
2016-Nov-21 08:32N 33°60' E 134°58'2323.3
2016-Nov-21 07:33N 34°22' E 135°01'2612.0
2016-Nov-21 05:24N 34°40' E 135°24'0 0.0
2016-Nov-21 04:24N 34°40' E 135°24'0 0.0
2016-Nov-21 02:30N 34°40' E 135°24'0 0.0
2016-Nov-21 00:30N 34°40' E 135°24'0 0.0
2016-Nov-20 22:30N 34°40' E 135°24'0 0.0
2016-Nov-20 21:18N 34°40' E 135°24'0 0.0
2016-Nov-20 17:30N 34°40' E 135°24'0 0.0
2016-Nov-20 16:24N 34°40' E 135°24'0 0.0
2016-Nov-20 14:30N 34°40' E 135°24'0 0.0
2016-Nov-20 13:30N 34°40' E 135°24'0 0.0
2016-Nov-20 12:30N 34°40' E 135°24'0 0.0
2016-Nov-20 09:30N 34°40' E 135°24'0 0.0
2016-Nov-20 08:30N 34°40' E 135°24'0 0.0
2016-Nov-20 07:30N 34°40' E 135°24'0 0.0
2016-Nov-20 06:30N 34°40' E 135°24'0 0.0
2016-Nov-20 05:30N 34°40' E 135°24'0 0.0
2016-Nov-20 04:24N 34°40' E 135°24'0 0.0
2016-Nov-20 03:30N 34°40' E 135°24'12 6.1
2016-Nov-20 01:33N 34°31' E 135°14'  

Dump ship's entire track history